Terminal Aerodrome Forecast
Issued by NWS Bismarck, ND

Home | Current Version | Previous Version | Text Only | Print | Product List | Glossary Off
Versions: 1 2 3 4 5 6 7 8 9 10 11 12 13 14

965
FTUS43 KBIS 222118 AAC
TAFBIS
TAF AMD
KBIS 222118Z 2221/2318 27012G16KT P6SM BKN070
     FM222200 32009KT P6SM VCSH BKN070
     FM230000 36010KT P6SM BKN070
     FM230100 04008KT P6SM SCT060 BKN110
     FM230600 06012G21KT P6SM BKN030
     FM231000 07013G23KT P6SM BKN015=

USA.gov is the U.S. government's official web portal to all federal, state and local government web resources and services.